MDT,Max TemperatureF,Mean TemperatureF,Min TemperatureF,Max Dew PointF,MeanDew PointF,Min DewpointF,Max Humidity, Mean Humidity, Min Humidity, Max Sea Level PressureIn, Mean Sea Level PressureIn, Min Sea Level PressureIn, Max VisibilityMiles, Mean VisibilityMiles, Min VisibilityMiles, Max Wind SpeedMPH, Mean Wind SpeedMPH, Max Gust SpeedMPH,PrecipitationIn, CloudCover, Events, WindDirDegrees
2013-3-1,52,39,26,15,10,7,58,36,19,30.33,30.26,30.20,10,10,10,16,9,22,0.00,0,,352
2013-3-2,59,40,21,19,17,14,72,43,20,30.41,30.27,30.14,10,10,10,13,4,16,0.00,0,,3
2013-3-3,63,44,26,19,13,-6,66,31,6,30.12,29.90,29.74,10,10,10,25,10,33,0.00,1,,290
2013-3-4,57,48,39,19,17,15,41,28,19,29.97,29.75,29.66,10,10,10,22,14,34,0.00,3,,283
2013-3-5,55,39,23,20,15,6,78,40,14,30.29,30.18,30.04,10,10,8,12,6,,0.00,0,,159
2013-3-6,61,48,34,21,19,17,52,34,19,30.11,30.00,29.88,10,9,2,17,6,23,0.00,0,,251
2013-3-7,64,45,26,20,12,-4,63,30,6,29.99,29.90,29.78,10,10,10,15,7,23,0.00,1,,311
2013-3-8,59,43,27,39,25,12,93,57,18,29.92,29.79,29.64,10,9,1,26,8,37,0.08,4,Rain,199
2013-3-9,39,32,26,34,27,18,100,83,53,29.96,29.79,29.66,10,7,1,20,11,29,0.06,6,Snow,273
2013-3-10,45,33,21,26,22,17,96,71,33,30.17,30.08,29.97,10,9,2,9,4,,0.00,5,Snow,46
2013-3-11,57,40,24,22,18,16,81,50,21,30.16,30.06,29.91,10,10,10,22,7,31,0.00,0,,320
2013-3-12,60,45,30,24,21,18,69,43,20,30.20,30.10,29.99,10,10,10,15,6,20,0.00,0,,171
2013-3-13,64,45,26,24,22,19,81,42,17,30.29,30.20,30.14,10,10,10,10,3,,0.00,0,,20
2013-3-14,72,52,33,22,16,3,61,28,7,30.25,30.15,30.08,10,10,10,22,9,30,0.00,0,,340
2013-3-15,75,54,35,19,13,1,46,25,6,30.12,29.98,29.81,10,10,10,18,8,24,0.00,0,,340
2013-3-16,66,50,33,33,19,12,59,30,15,29.84,29.76,29.67,10,10,10,18,7,28,0.00,2,,269
2013-3-17,64,47,30,33,19,-4,88,42,7,29.77,29.68,29.55,10,10,10,29,9,44,0.00,1,,300
2013-3-18,63,46,30,9,2,-8,38,18,7,29.91,29.82,29.71,10,10,9,25,10,44,0.00,0,,261
2013-3-19,55,42,28,17,7,-1,43,24,14,30.03,29.95,29.86,10,10,8,15,6,20,0.00,3,,15
2013-3-20,59,42,27,22,16,12,53,34,19,30.20,29.96,29.76,10,10,10,15,10,22,0.00,0,,197
2013-3-21,66,54,39,28,16,-3,46,28,6,29.75,29.60,29.45,10,10,6,26,9,41,0.00,3,,302
2013-3-22,60,46,32,24,10,1,42,25,9,29.73,29.62,29.56,10,10,10,23,8,34,0.00,1,,211
2013-3-23,45,31,19,21,-4,-23,43,22,7,30.05,29.77,29.55,10,10,2,32,16,50,0.00,0,,272
2013-3-24,48,30,12,6,-4,-13,67,27,10,30.14,30.02,29.86,10,10,10,23,8,33,0.00,0,,302
2013-3-25,48,32,17,10,5,-1,71,37,15,30.24,30.14,30.05,10,10,10,23,10,31,0.00,0,,147
2013-3-26,61,42,23,8,6,4,44,25,12,30.18,30.05,29.92,10,10,10,16,8,23,0.00,1,,189
2013-3-27,68,48,30,9,5,-4,38,19,7,29.99,29.93,29.87,10,10,10,22,5,34,0.00,0,,280
2013-3-28,70,50,32,16,9,4,38,19,9,30.03,29.96,29.91,10,10,10,18,5,28,0.00,0,,235
2013-3-29,70,50,33,20,15,12,48,27,12,30.08,30.00,29.94,10,10,10,15,6,30,0.00,1,,357
2013-3-30,72,52,36,23,18,12,53,28,11,30.09,29.96,29.87,10,10,10,18,8,25,0.00,1,,323
2013-3-31,71,52,35,31,23,16,58,32,16,30.01,29.92,29.84,10,10,10,17,7,25,0.00,2,,182